메인 페이지
METAR-TAF:

METAR-TAF

공항 :

Muir Army Airfield

Fort Indiantown Gap, 펜실베이니아, 미국

위도: 40-26N, 경도: 076-34W, 고도: 149m

현재 날씨관측

예보는 55분 전, 23:56시(UTC)에 발표되었습니다.
5kt
온도 11°C
습도 37%
기압 1010 hPa
시정: 16.1km
맑음

METAR: KMUI 032356Z 26005KT 10SM CLR 11/M03 A2983 RMK AO2A SLP108 T01111034 10136 20111 53006

시각: 19:51 (00:51 UTC)

예보

예보는 5 시간 51분 전, 19:00시(UTC)에 발표되었습니다.
예보 대상 시간: 03일 19시부터 05일 01시까지 (UTC)
12kt, 순간 최대 풍속 18kt
시정 10km 이상
맑음
전환 중
03일 21시부터 03일 22시까지 (UTC)
6kt
시정 10km 이상
고도 4000ft 상공 구름 조금
전환 중
04일 04시부터 04일 05시까지 (UTC)
서북서6kt
시정 10km 이상
고도 3500ft 상공 구름 많음
전환 중
04일 14시부터 04일 15시까지 (UTC)
북북서20kt, 순간 최대 풍속 25kt
시정 10km 이상
고도 2500ft 상공 구름 많음
전환 중
04일 23시부터 04일 24시까지 (UTC)
북서12kt
시정: 0411m
고도 5500ft 상공 구름 조금

TAF: KMUI 031900Z 0319/0501 27012G18KT 9999 SKC 510053 QNH2986INS BECMG 0321/0322 27006KT 9999 FEW040 510053 QNH2985INS BECMG 0404/0405 29006KT 9999 BKN035 510053 QNH2987INS BECMG 0414/0415 33020G25KT 9999 BKN025 510053 QNH2990INS BECMG 0423/0424 32012KT 9999 FEW055 510053 QNH2995INS TX12/0321Z TN01/0412Z LAST NO AMDS AFT 0405 NEXT 0411

4,000개 이상의 공항 관측 자료 및 예보 (METAR 및 TAF 보고).

지도상에서 검색 가능한 기상관측소가 노란 점과 빨간 점으로 표시되어 있습니다.

기상관측소 명을 보려면 표시 위로 마우스를 이동하세요.

날씨 관측과 예보를 보려면 클릭하세요.

지도 변경 : 확대하려면 엑스 표시가 있는 녹색 버튼, 축소하려면 빼기 표시가 있는 녹색 버튼, 다음 페이지의 지도를 보려면 녹색 화살표를 클릭하세요.


METAR-TAF: